createdAt,value
2022-09-09T00:00:37.375Z,100221.72
2022-09-09T00:03:34.165Z,100225.75
2022-09-09T00:06:14.283Z,100216.78
2022-09-09T00:08:59.063Z,100219.88
2022-09-09T00:11:41.647Z,100218.41
2022-09-09T00:14:20.865Z,100214.13
2022-09-09T00:16:56.564Z,100215.47
2022-09-09T00:19:35.347Z,100225.91
2022-09-09T00:22:18.311Z,100217.47
2022-09-09T00:24:54.441Z,100223.25
2022-09-09T00:27:33.731Z,100225.59
2022-09-09T00:30:17.317Z,100226.13
2022-09-09T00:32:47.345Z,100229.94
2022-09-09T00:35:23.439Z,100225.97
2022-09-09T00:37:57.931Z,100225.44
2022-09-09T00:40:35.676Z,100226.25
2022-09-09T00:43:31.060Z,100225.75
2022-09-09T00:46:32.142Z,100219.09
2022-09-09T00:49:14.027Z,100232.38
2022-09-09T00:51:58.379Z,100237.13
2022-09-09T00:54:40.054Z,100237.13
2022-09-09T00:57:30.221Z,100232.47
2022-09-09T01:00:20.789Z,100231.22
2022-09-09T01:03:05.539Z,100215.03
2022-09-09T01:05:46.004Z,100212.31
2022-09-09T01:08:43.057Z,100204.00
2022-09-09T01:11:22.267Z,100211.25
2022-09-09T01:14:02.453Z,100211.47
2022-09-09T01:16:35.269Z,100206.00
2022-09-09T01:19:11.885Z,100197.91
2022-09-09T01:21:52.225Z,100205.53
2022-09-09T01:24:33.364Z,100211.31
2022-09-09T01:27:18.402Z,100202.19
2022-09-09T01:29:48.884Z,100204.28
2022-09-09T01:32:43.869Z,100201.31
2022-09-09T01:35:31.383Z,100201.81
2022-09-09T01:38:02.100Z,100202.78
2022-09-09T01:40:31.235Z,100208.66
2022-09-09T01:43:01.726Z,100210.69
2022-09-09T01:45:31.861Z,100216.66
2022-09-09T01:48:03.154Z,100218.09
2022-09-09T01:50:52.082Z,100211.69
2022-09-09T01:53:24.106Z,100205.34
2022-09-09T01:56:08.964Z,100203.41
2022-09-09T01:58:58.414Z,100206.66
2022-09-09T02:01:39.999Z,100203.81
2022-09-09T02:04:25.301Z,100209.06
2022-09-09T02:06:58.841Z,100203.81
2022-09-09T02:09:32.809Z,100197.13
2022-09-09T02:12:13.164Z,100194.72
2022-09-09T02:15:01.265Z,100191.78
2022-09-09T02:17:43.244Z,100190.97
2022-09-09T02:20:18.358Z,100196.00
2022-09-09T02:22:56.091Z,100195.19
2022-09-09T02:25:31.565Z,100190.03
2022-09-09T02:28:11.645Z,100201.31
2022-09-09T02:30:44.674Z,100210.28
2022-09-09T02:33:16.526Z,100204.13
2022-09-09T02:35:51.660Z,100210.41
2022-09-09T02:38:30.593Z,100211.13
2022-09-09T02:41:05.558Z,100210.28
2022-09-09T02:43:36.740Z,100204.41
2022-09-09T02:46:30.978Z,100215.34
2022-09-09T02:49:06.939Z,100202.06
2022-09-09T02:51:53.985Z,100205.75
2022-09-09T02:54:32.195Z,100213.66
2022-09-09T02:57:12.716Z,100207.97
2022-09-09T02:59:45.969Z,100208.19
2022-09-09T03:02:16.271Z,100207.97
2022-09-09T03:04:52.007Z,100207.88
2022-09-09T03:07:22.936Z,100213.03
2022-09-09T03:09:56.046Z,100200.50
2022-09-09T03:12:28.093Z,100201.00
2022-09-09T03:14:56.620Z,100204.59
2022-09-09T03:17:29.052Z,100199.56
2022-09-09T03:19:59.802Z,100195.50
2022-09-09T03:22:28.736Z,100197.06
2022-09-09T03:25:00.781Z,100193.81
2022-09-09T03:27:30.622Z,100197.41
2022-09-09T03:30:00.282Z,100196.31
2022-09-09T03:32:30.412Z,100198.03
2022-09-09T03:34:59.725Z,100199.38
2022-09-09T03:37:28.612Z,100192.38
2022-09-09T03:39:57.536Z,100205.44
2022-09-09T03:42:26.441Z,100196.44
2022-09-09T03:44:58.843Z,100209.06
2022-09-09T03:47:28.167Z,100206.75
2022-09-09T03:50:09.353Z,100214.88
2022-09-09T03:52:41.924Z,100203.69
2022-09-09T03:55:16.013Z,100211.38
2022-09-09T03:57:44.795Z,100199.16
2022-09-09T04:00:15.570Z,100209.69
2022-09-09T04:02:55.117Z,100206.09
2022-09-09T04:05:25.168Z,100207.88
2022-09-09T04:07:53.917Z,100211.69
2022-09-09T04:10:24.084Z,100206.31
2022-09-09T04:12:53.742Z,100204.19
2022-09-09T04:15:23.763Z,100205.34
2022-09-09T04:17:52.541Z,100201.06
2022-09-09T04:20:21.518Z,100207.03
2022-09-09T04:22:52.134Z,100198.31
2022-09-09T04:25:20.919Z,100205.13
2022-09-09T04:27:52.897Z,100202.16
2022-09-09T04:30:22.012Z,100203.97
2022-09-09T04:32:50.666Z,100208.25
2022-09-09T04:35:21.069Z,100209.78
2022-09-09T04:37:51.271Z,100210.72
2022-09-09T04:40:20.055Z,100210.78
2022-09-09T04:42:51.391Z,100205.84
2022-09-09T04:45:20.638Z,100211.63
2022-09-09T04:47:50.029Z,100213.75
2022-09-09T04:50:18.699Z,100219.78
2022-09-09T04:52:50.767Z,100224.50
2022-09-09T04:55:19.675Z,100218.59
2022-09-09T04:57:49.317Z,100221.03
2022-09-09T05:00:19.891Z,100221.41
2022-09-09T05:02:50.654Z,100219.84
2022-09-09T05:05:19.694Z,100215.06
2022-09-09T05:07:51.995Z,100222.97
2022-09-09T05:10:21.654Z,100228.63
2022-09-09T05:12:55.595Z,100227.06
2022-09-09T05:15:27.288Z,100234.88
2022-09-09T05:18:00.308Z,100228.94
2022-09-09T05:20:31.398Z,100230.53
2022-09-09T05:23:01.255Z,100231.03
2022-09-09T05:25:32.318Z,100233.06
2022-09-09T05:28:01.767Z,100236.19
2022-09-09T05:30:31.069Z,100237.84
2022-09-09T05:33:02.615Z,100231.88
2022-09-09T05:35:31.153Z,100230.69
2022-09-09T05:38:03.160Z,100227.09
2022-09-09T05:40:32.246Z,100226.88
2022-09-09T05:43:03.869Z,100226.25
2022-09-09T05:45:32.607Z,100231.91
2022-09-09T05:48:03.584Z,100227.25
2022-09-09T05:50:32.735Z,100229.19
2022-09-09T05:53:02.823Z,100236.97
2022-09-09T05:55:32.193Z,100236.97
2022-09-09T05:58:00.939Z,100237.34
2022-09-09T06:00:32.642Z,100248.72
2022-09-09T06:03:02.238Z,100245.34
2022-09-09T06:05:31.397Z,100246.78
2022-09-09T06:08:02.779Z,100250.38
2022-09-09T06:10:31.778Z,100247.63
2022-09-09T06:13:00.514Z,100255.66
2022-09-09T06:15:31.646Z,100258.44
2022-09-09T06:18:00.469Z,100260.47
2022-09-09T06:20:31.705Z,100258.06
2022-09-09T06:23:01.984Z,100254.00
2022-09-09T06:25:31.202Z,100265.50
2022-09-09T06:27:59.735Z,100262.16
2022-09-09T06:30:28.320Z,100264.78
2022-09-09T06:32:59.092Z,100257.59
2022-09-09T06:35:27.802Z,100257.22
2022-09-09T06:37:56.368Z,100274.97
2022-09-09T06:40:27.095Z,100271.50
2022-09-09T06:42:55.783Z,100268.03
2022-09-09T06:45:37.665Z,100272.59
2022-09-09T06:48:06.581Z,100266.03
2022-09-09T06:50:35.855Z,100273.47
2022-09-09T06:53:05.344Z,100271.06
2022-09-09T06:55:36.086Z,100271.66
2022-09-09T06:58:04.676Z,100273.34
2022-09-09T07:00:33.944Z,100271.31
2022-09-09T07:03:02.541Z,100265.94
2022-09-09T07:05:31.247Z,100276.13
2022-09-09T07:08:00.143Z,100273.97
2022-09-09T07:10:29.260Z,100278.19
2022-09-09T07:12:59.377Z,100277.44
2022-09-09T07:15:28.478Z,100281.97
2022-09-09T07:17:57.451Z,100286.44
2022-09-09T07:20:26.085Z,100286.19
2022-09-09T07:22:58.239Z,100283.78
2022-09-09T07:25:29.997Z,100289.28
2022-09-09T07:28:01.022Z,100286.81
2022-09-09T07:30:29.932Z,100286.47
2022-09-09T07:33:00.281Z,100283.69
2022-09-09T07:35:29.348Z,100288.88
2022-09-09T07:37:59.291Z,100279.25
2022-09-09T07:40:28.288Z,100283.59
2022-09-09T07:42:57.175Z,100292.00
2022-09-09T07:45:29.384Z,100292.94
2022-09-09T07:47:58.574Z,100298.56
2022-09-09T07:50:28.319Z,100307.56
2022-09-09T07:52:57.709Z,100314.28
2022-09-09T07:55:27.730Z,100321.50
2022-09-09T07:57:58.101Z,100326.06
2022-09-09T08:00:28.846Z,100330.00
2022-09-09T08:03:01.993Z,100334.44
2022-09-09T08:05:31.168Z,100336.25
2022-09-09T08:07:59.935Z,100340.34
2022-09-09T08:10:28.792Z,100331.69
2022-09-09T08:13:16.886Z,100333.38
2022-09-09T08:15:48.470Z,100343.56
2022-09-09T08:18:17.233Z,100334.69
2022-09-09T08:20:47.275Z,100339.97
2022-09-09T08:23:17.068Z,100334.69
2022-09-09T08:25:46.722Z,100330.91
2022-09-09T08:28:16.325Z,100332.34
2022-09-09T08:30:45.160Z,100328.25
2022-09-09T08:33:15.076Z,100333.75
2022-09-09T08:35:53.860Z,100340.28
2022-09-09T08:38:22.837Z,100346.84
2022-09-09T08:41:02.077Z,100339.78
2022-09-09T08:43:33.334Z,100343.59
2022-09-09T08:46:13.131Z,100343.59
2022-09-09T08:48:57.982Z,100348.75
2022-09-09T08:51:32.252Z,100356.44
2022-09-09T08:54:05.249Z,100342.66
2022-09-09T08:56:35.914Z,100351.91
2022-09-09T08:59:06.929Z,100353.91
2022-09-09T09:01:58.184Z,100346.03
2022-09-09T09:05:07.415Z,100342.41
2022-09-09T09:07:54.193Z,100348.16
2022-09-09T09:10:47.892Z,100357.41
2022-09-09T09:13:25.922Z,100350.56
2022-09-09T09:16:05.189Z,100357.75
2022-09-09T09:18:34.941Z,100365.78
2022-09-09T09:21:16.514Z,100375.13
2022-09-09T09:23:56.348Z,100367.13
2022-09-09T09:26:31.115Z,100375.53
2022-09-09T09:29:10.328Z,100364.97
2022-09-09T09:31:39.068Z,100368.06
2022-09-09T09:34:11.270Z,100372.50
2022-09-09T09:36:48.364Z,100368.06
2022-09-09T09:42:21.716Z,100366.28
2022-09-09T09:44:53.910Z,100369.97
2022-09-09T09:47:25.961Z,100373.00
2022-09-09T09:50:05.956Z,100371.91
2022-09-09T09:52:45.695Z,100373.06
2022-09-09T09:55:16.728Z,100373.06
2022-09-09T09:57:48.497Z,100372.91
2022-09-09T10:00:21.540Z,100374.72
2022-09-09T10:03:02.725Z,100374.47
2022-09-09T10:05:38.501Z,100382.78
2022-09-09T10:08:17.636Z,100389.63
2022-09-09T10:11:25.740Z,100386.97
2022-09-09T10:14:11.136Z,100385.09
2022-09-09T10:16:58.361Z,100389.88
2022-09-09T10:19:34.666Z,100387.22
2022-09-09T10:22:25.662Z,100398.63
2022-09-09T10:25:24.022Z,100396.34
2022-09-09T10:28:19.045Z,100396.34
2022-09-09T10:31:04.933Z,100405.56
2022-09-09T10:33:45.375Z,100409.19
2022-09-09T10:36:21.529Z,100418.88
2022-09-09T10:38:57.150Z,100421.53
2022-09-09T10:41:47.297Z,100427.69
2022-09-09T10:44:46.502Z,100421.81
2022-09-09T10:47:50.356Z,100429.13
2022-09-09T10:51:05.324Z,100437.16
2022-09-09T10:54:00.738Z,100430.69
2022-09-09T10:56:32.174Z,100444.38
2022-09-09T10:59:09.272Z,100441.97
2022-09-09T11:01:45.891Z,100442.19
2022-09-09T11:04:24.394Z,100441.72
2022-09-09T11:06:58.085Z,100443.53
2022-09-09T11:09:33.258Z,100449.31
2022-09-09T11:12:03.780Z,100453.31
2022-09-09T11:14:43.544Z,100442.44
2022-09-09T11:17:18.591Z,100450.63
2022-09-09T11:19:48.162Z,100442.22
2022-09-09T11:22:31.496Z,100446.44
2022-09-09T11:25:06.528Z,100448.84
2022-09-09T11:27:46.244Z,100456.63
2022-09-09T11:33:52.506Z,100454.19
2022-09-09T11:36:59.930Z,100453.50
2022-09-09T11:39:53.743Z,100458.50
2022-09-09T11:42:25.950Z,100459.03
2022-09-09T11:44:57.753Z,100456.84
2022-09-09T11:47:31.414Z,100463.44
2022-09-09T11:50:14.373Z,100459.25
2022-09-09T11:52:46.915Z,100455.63
2022-09-09T11:55:33.914Z,100456.53
2022-09-09T11:58:05.568Z,100463.41
2022-09-09T12:00:39.712Z,100457.34
2022-09-09T12:03:36.995Z,100460.78
2022-09-09T12:06:21.548Z,100462.47
2022-09-09T12:08:56.432Z,100473.44
2022-09-09T12:11:30.202Z,100466.44
2022-09-09T12:14:02.004Z,100472.25
2022-09-09T12:16:35.711Z,100468.00
2022-09-09T12:19:17.704Z,100466.31
2022-09-09T12:21:56.411Z,100468.34
2022-09-09T12:24:39.529Z,100473.78
2022-09-09T12:27:20.702Z,100463.66
2022-09-09T12:30:02.511Z,100467.22
2022-09-09T12:32:32.495Z,100463.91
2022-09-09T12:35:08.372Z,100472.47
2022-09-09T12:37:40.327Z,100464.59
2022-09-09T12:40:24.369Z,100459.88
2022-09-09T12:42:53.963Z,100460.19
2022-09-09T12:45:26.887Z,100458.47
2022-09-09T12:48:02.348Z,100460.84
2022-09-09T12:50:35.327Z,100457.06
2022-09-09T12:53:11.261Z,100456.66
2022-09-09T12:55:41.632Z,100462.25
2022-09-09T12:58:19.899Z,100463.56
2022-09-09T13:00:54.161Z,100466.84
2022-09-09T13:03:25.908Z,100457.69
2022-09-09T13:06:01.337Z,100456.06
2022-09-09T13:08:30.140Z,100459.53
2022-09-09T13:11:04.275Z,100446.13
2022-09-09T13:13:38.846Z,100463.59
2022-09-09T13:16:21.241Z,100454.44
2022-09-09T13:18:51.911Z,100444.06
2022-09-09T13:21:21.691Z,100440.78
2022-09-09T13:23:54.140Z,100445.50
2022-09-09T13:26:26.752Z,100444.91
2022-09-09T13:28:56.962Z,100432.09
2022-09-09T13:31:31.515Z,100441.34
2022-09-09T13:34:01.399Z,100440.91
2022-09-09T13:36:33.888Z,100446.91
2022-09-09T13:39:05.307Z,100452.59
2022-09-09T13:41:37.610Z,100449.09
2022-09-09T13:44:08.363Z,100450.91
2022-09-09T13:46:41.365Z,100444.75
2022-09-09T13:49:24.852Z,100454.88
2022-09-09T13:51:54.998Z,100447.75
2022-09-09T13:54:23.899Z,100455.56
2022-09-09T13:56:52.459Z,100455.19
2022-09-09T13:59:22.661Z,100458.22
2022-09-09T14:01:53.451Z,100459.88
2022-09-09T14:04:23.630Z,100456.78
2022-09-09T14:06:52.950Z,100461.22
2022-09-09T14:09:21.544Z,100460.31
2022-09-09T14:11:50.412Z,100459.63
2022-09-09T14:14:19.006Z,100459.94
2022-09-09T14:16:47.906Z,100461.72
2022-09-09T14:19:16.721Z,100468.25
2022-09-09T14:21:46.612Z,100467.22
2022-09-09T14:24:15.156Z,100470.19
2022-09-09T14:26:44.008Z,100471.69
2022-09-09T14:29:12.510Z,100473.09
2022-09-09T14:31:41.015Z,100468.97
2022-09-09T14:34:10.965Z,100469.41
2022-09-09T14:36:39.711Z,100473.09
2022-09-09T14:39:10.060Z,100472.03
2022-09-09T14:41:38.989Z,100466.84
2022-09-09T14:44:07.504Z,100474.22
2022-09-09T14:46:36.105Z,100480.47
2022-09-09T14:49:06.551Z,100475.91
2022-09-09T14:51:35.251Z,100471.00
2022-09-09T14:54:04.141Z,100475.25
2022-09-09T14:56:36.467Z,100470.63
2022-09-09T14:59:05.581Z,100479.19
2022-09-09T15:01:35.337Z,100472.59
2022-09-09T15:04:07.320Z,100476.41
2022-09-09T15:06:39.445Z,100469.72
2022-09-09T15:09:08.379Z,100471.13
2022-09-09T15:11:39.796Z,100465.19
2022-09-09T15:14:10.775Z,100469.78
2022-09-09T15:16:41.598Z,100466.59
2022-09-09T15:19:10.983Z,100472.56
2022-09-09T15:21:40.458Z,100475.97
2022-09-09T15:24:09.555Z,100472.47
2022-09-09T15:26:40.655Z,100478.78
2022-09-09T15:29:10.066Z,100476.16
2022-09-09T15:31:39.029Z,100482.94
2022-09-09T15:34:09.479Z,100482.56
2022-09-09T15:36:40.501Z,100489.53
2022-09-09T15:39:13.576Z,100486.41
2022-09-09T15:41:45.257Z,100493.81
2022-09-09T15:44:14.656Z,100488.28
2022-09-09T15:46:45.736Z,100477.56
2022-09-09T15:49:18.413Z,100469.16
2022-09-09T15:51:52.253Z,100479.97
2022-09-09T15:54:24.978Z,100476.75
2022-09-09T15:56:58.099Z,100479.00
2022-09-09T15:59:29.670Z,100471.06
2022-09-09T16:02:01.021Z,100469.13
2022-09-09T16:04:30.837Z,100467.81
2022-09-09T16:07:04.042Z,100480.81
2022-09-09T16:09:36.038Z,100471.56
2022-09-09T16:12:10.585Z,100472.28
2022-09-09T16:14:39.842Z,100471.81
2022-09-09T16:17:08.804Z,100473.75
2022-09-09T16:19:37.599Z,100474.72
2022-09-09T16:22:07.651Z,100462.94
2022-09-09T16:49:17.057Z,100462.97
2022-09-09T16:51:49.324Z,100476.44
2022-09-09T16:54:19.542Z,100472.63
2022-09-09T16:56:50.443Z,100468.81
2022-09-09T16:59:21.672Z,100472.41
2022-09-09T17:01:53.631Z,100464.41
2022-09-09T17:04:28.910Z,100474.59
2022-09-09T17:07:01.494Z,100466.66
2022-09-09T17:09:32.362Z,100476.31
2022-09-09T17:12:02.005Z,100480.91
2022-09-09T17:14:32.758Z,100483.28
2022-09-09T17:17:19.256Z,100490.53
2022-09-09T17:19:53.211Z,100493.63
2022-09-09T17:22:22.262Z,100495.06
2022-09-09T17:24:50.992Z,100495.22
2022-09-09T17:27:19.609Z,100497.25
2022-09-09T17:29:48.495Z,100494.97
2022-09-09T17:32:17.201Z,100497.88
2022-09-09T17:34:46.993Z,100503.84
2022-09-09T17:37:17.426Z,100501.19
2022-09-09T17:39:46.168Z,100502.19
2022-09-09T17:42:15.384Z,100504.84
2022-09-09T17:44:44.165Z,100503.72
2022-09-09T17:47:12.815Z,100503.25
2022-09-09T17:49:41.402Z,100516.84
2022-09-09T17:52:10.159Z,100511.53
2022-09-09T17:54:42.286Z,100515.88
2022-09-09T17:57:11.101Z,100518.41
2022-09-09T17:59:39.933Z,100515.53
2022-09-09T18:02:10.940Z,100526.22
2022-09-09T18:04:39.779Z,100527.91
2022-09-09T18:07:08.352Z,100527.31
2022-09-09T18:09:39.036Z,100529.00
2022-09-09T18:12:09.477Z,100532.13
2022-09-09T18:14:38.060Z,100534.16
2022-09-09T18:17:06.758Z,100539.31
2022-09-09T18:19:35.823Z,100536.44
2022-09-09T18:22:07.035Z,100540.16
2022-09-09T18:24:36.388Z,100535.13
2022-09-09T18:27:05.609Z,100543.88
2022-09-09T18:29:35.771Z,100543.41
2022-09-09T18:32:04.695Z,100545.09
2022-09-09T18:34:33.676Z,100549.41
2022-09-09T18:37:02.428Z,100546.31
2022-09-09T18:39:31.766Z,100543.78
2022-09-09T18:42:02.829Z,100538.97
2022-09-09T18:44:35.645Z,100548.13
2022-09-09T18:47:04.599Z,100560.13
2022-09-09T18:49:34.318Z,100553.63
2022-09-09T18:52:04.536Z,100554.97
2022-09-09T18:54:34.809Z,100552.81
2022-09-09T18:57:03.821Z,100545.59
2022-09-09T18:59:32.921Z,100547.50
2022-09-09T19:02:03.757Z,100532.34
2022-09-09T19:04:33.276Z,100553.88
2022-09-09T19:07:02.008Z,100550.16
2022-09-09T19:09:34.117Z,100548.72
2022-09-09T19:12:03.931Z,100553.25
2022-09-09T19:14:32.867Z,100547.50
2022-09-09T19:17:03.333Z,100554.09
2022-09-09T19:19:34.572Z,100560.25
2022-09-09T19:22:08.959Z,100554.00
2022-09-09T19:24:37.667Z,100547.97
2022-09-09T19:27:08.444Z,100551.47
2022-09-09T19:29:39.971Z,100535.25
2022-09-09T19:34:59.751Z,100547.00
2022-09-09T19:37:28.563Z,100548.94
2022-09-09T19:39:57.198Z,100546.53
2022-09-09T19:42:26.447Z,100540.28
2022-09-09T19:44:56.899Z,100541.72
2022-09-09T19:47:26.950Z,100546.88
2022-09-09T19:49:55.964Z,100550.50
2022-09-09T19:52:24.549Z,100539.06
2022-09-09T19:54:53.217Z,100538.00
2022-09-09T19:57:23.679Z,100535.84
2022-09-09T19:59:52.269Z,100550.13
2022-09-09T20:02:21.025Z,100554.47
2022-09-09T20:04:51.246Z,100551.56
2022-09-09T20:07:20.206Z,100547.84
2022-09-09T20:09:49.428Z,100558.31
2022-09-09T20:12:18.221Z,100555.75
2022-09-09T20:14:46.789Z,100556.47
2022-09-09T20:17:15.453Z,100547.72
2022-09-09T20:19:44.367Z,100538.47
2022-09-09T20:22:14.664Z,100549.88
2022-09-09T20:24:44.087Z,100545.75
2022-09-09T20:27:12.931Z,100559.22
2022-09-09T20:29:41.552Z,100552.59
2022-09-09T20:32:10.251Z,100553.06
2022-09-09T20:34:39.028Z,100556.31
2022-09-09T20:37:07.648Z,100553.34
2022-09-09T20:39:37.677Z,100557.41
2022-09-09T20:42:08.349Z,100550.81
2022-09-09T20:44:37.242Z,100559.78
2022-09-09T20:47:07.198Z,100560.13
2022-09-09T20:49:36.274Z,100561.81
2022-09-09T20:52:05.988Z,100554.50
2022-09-09T20:54:36.069Z,100565.47
2022-09-09T20:57:07.230Z,100549.13
2022-09-09T20:59:35.891Z,100554.41
2022-09-09T21:02:05.037Z,100551.75
2022-09-09T21:04:34.096Z,100557.03
2022-09-09T21:07:04.331Z,100560.41
2022-09-09T21:09:33.042Z,100560.63
2022-09-09T21:12:01.959Z,100568.09
2022-09-09T21:14:32.708Z,100557.31
2022-09-09T21:17:03.162Z,100558.63
2022-09-09T21:19:32.021Z,100565.00
2022-09-09T21:22:00.616Z,100572.81
2022-09-09T21:24:29.236Z,100577.47
2022-09-09T21:26:58.054Z,100567.75
2022-09-09T21:29:26.771Z,100566.66
2022-09-09T21:31:56.705Z,100576.16
2022-09-09T21:34:25.570Z,100576.13
2022-09-09T21:36:54.201Z,100572.31
2022-09-09T21:39:23.100Z,100573.25
2022-09-09T21:41:51.906Z,100566.06
2022-09-09T21:44:21.074Z,100560.16
2022-09-09T21:46:49.645Z,100563.06
2022-09-09T21:49:19.952Z,100562.69
2022-09-09T21:51:48.919Z,100570.03
2022-09-09T21:54:18.734Z,100566.16
2022-09-09T21:56:51.859Z,100568.44
2022-09-09T21:59:20.616Z,100563.91
2022-09-09T22:01:49.466Z,100561.59
2022-09-09T22:04:19.430Z,100563.53
2022-09-09T22:06:48.161Z,100565.91
2022-09-09T22:09:17.063Z,100562.69
2022-09-09T22:11:45.686Z,100562.25
2022-09-09T22:14:14.258Z,100556.84
2022-09-09T22:16:43.246Z,100555.41
2022-09-09T22:19:12.009Z,100556.84
2022-09-09T22:21:42.030Z,100561.19
2022-09-09T22:24:12.189Z,100559.22
2022-09-09T22:26:40.844Z,100554.69
2022-09-09T22:29:09.482Z,100563.34
2022-09-09T22:31:38.421Z,100554.69
2022-09-09T22:34:07.928Z,100555.38
2022-09-09T22:36:36.817Z,100558.25
2022-09-09T22:39:07.483Z,100558.03
2022-09-09T22:41:36.120Z,100562.47
2022-09-09T22:44:05.252Z,100560.66
2022-09-09T22:46:34.248Z,100559.13
2022-09-09T22:49:03.768Z,100563.53
2022-09-09T22:51:34.810Z,100563.03
2022-09-09T22:54:03.628Z,100553.44
2022-09-09T22:56:33.869Z,100558.97
2022-09-09T22:59:02.665Z,100555.81
2022-09-09T23:01:32.189Z,100549.72
2022-09-09T23:04:02.779Z,100546.59
2022-09-09T23:06:32.065Z,100543.78
2022-09-09T23:09:04.178Z,100544.44
2022-09-09T23:11:38.306Z,100533.72
2022-09-09T23:14:11.199Z,100538.41
2022-09-09T23:16:44.050Z,100540.31
2022-09-09T23:19:18.280Z,100538.28
2022-09-09T23:21:48.040Z,100544.28
2022-09-09T23:24:19.143Z,100535.66
2022-09-09T23:26:49.207Z,100536.34
2022-09-09T23:29:19.207Z,100531.31
2022-09-09T23:31:47.993Z,100531.75
2022-09-09T23:34:16.776Z,100524.81
2022-09-09T23:36:46.070Z,100531.63
2022-09-09T23:39:14.862Z,100520.63
2022-09-09T23:41:43.453Z,100532.25
2022-09-09T23:44:13.770Z,100526.97
2022-09-09T23:46:42.496Z,100531.75
2022-09-09T23:49:11.253Z,100522.78
2022-09-09T23:51:41.116Z,100522.28
2022-09-09T23:54:10.794Z,100516.06
2022-09-09T23:56:42.450Z,100522.06
2022-09-09T23:59:13.182Z,100527.66
